Time;durP1;ratioP1;P1;durP2;ratioP2;P2;SDS_P1;SDS_P2;PMS_P1;PMS_P2;Temp;Humidity;BMP_temperature;BMP_pressure;BME280_temperature;BME280_humidity;BME280_pressure;Samples;Min_cycle;Max_cycle;Signal;HPM_P1;HPM_P2
2024/01/15 00:00:10;;;;;;;1.98;1.17;;;;;;;-3.92;100.00;94811.63;1026825;28;20723;-69
2024/01/15 00:00:41;;;;;;;1.70;1.27;;;;;;;-3.92;100.00;94809.06;1027287;28;20580;-69
2024/01/15 00:01:11;;;;;;;0.35;0.35;;;;;;;-3.94;100.00;94811.03;1021084;29;20119;-69
2024/01/15 00:01:43;;;;;;;3.30;1.10;;;;;;;-3.95;100.00;94809.47;1022280;29;20035;-70
2024/01/15 00:02:14;;;;;;;1.35;1.30;;;;;;;-3.98;100.00;94808.06;1019609;29;20028;-69
2024/01/15 00:02:44;;;;;;;2.17;1.98;;;;;;;-4.03;100.00;94800.94;1023374;28;20278;-69
2024/01/15 00:03:15;;;;;;;0.60;0.47;;;;;;;-3.98;100.00;94807.28;1027627;28;20066;-69
2024/01/15 00:03:45;;;;;;;1.02;1.02;;;;;;;-3.99;100.00;94800.56;1029586;28;20030;-69
2024/01/15 00:04:16;;;;;;;0.15;0.15;;;;;;;-4.03;100.00;94795.84;1031137;28;20389;-69
2024/01/15 00:04:46;;;;;;;3.35;1.38;;;;;;;-4.05;100.00;94794.47;1027844;28;20082;-70
2024/01/15 00:05:17;;;;;;;0.70;0.70;;;;;;;-4.08;100.00;94795.63;1030917;28;20022;-69
2024/01/15 00:05:47;;;;;;;0.38;0.38;;;;;;;-4.09;100.00;94794.06;1029238;28;20037;-69
2024/01/15 00:06:17;;;;;;;1.55;1.45;;;;;;;-4.11;100.00;94785.78;1029195;28;20062;-70
2024/01/15 00:06:52;;;;;;;1.23;1.02;;;;;;;-4.06;100.00;94796.25;1030873;28;20512;-69
2024/01/15 00:07:22;;;;;;;3.00;1.33;;;;;;;-4.06;100.00;94788.56;1027859;28;20033;-70
2024/01/15 00:07:53;;;;;;;0.20;0.20;;;;;;;-4.07;100.00;94792.09;1026419;28;20273;-69
2024/01/15 00:08:23;;;;;;;3.65;0.77;;;;;;;-4.10;100.00;94782.22;1026938;28;20030;-69
2024/01/15 00:08:53;;;;;;;3.25;2.95;;;;;;;-4.09;100.00;94777.88;1031022;28;20072;-70
2024/01/15 00:09:24;;;;;;;0.73;0.73;;;;;;;-4.15;100.00;94774.34;1026943;28;20503;-69
2024/01/15 00:09:55;;;;;;;2.08;1.65;;;;;;;-4.12;100.00;94776.53;1030221;28;20026;-69
2024/01/15 00:10:25;;;;;;;1.30;1.20;;;;;;;-4.15;100.00;94776.13;1027151;28;20031;-69
2024/01/15 00:10:56;;;;;;;1.75;1.38;;;;;;;-4.16;100.00;94777.09;1026913;28;20263;-69
2024/01/15 00:11:26;;;;;;;1.25;1.15;;;;;;;-4.17;100.00;94776.31;1024650;28;20035;-69
2024/01/15 00:11:57;;;;;;;0.55;0.55;;;;;;;-4.18;100.00;94779.06;1022688;28;20023;-69
2024/01/15 00:12:28;;;;;;;0.43;0.43;;;;;;;-4.22;100.00;94777.91;1026911;28;20058;-70
2024/01/15 00:12:58;;;;;;;0.25;0.25;;;;;;;-4.24;100.00;94779.84;1029069;28;20469;-69
2024/01/15 00:13:28;;;;;;;0.93;0.93;;;;;;;-4.24;100.00;94778.06;1026859;28;20038;-69
2024/01/15 00:13:59;;;;;;;0.10;0.10;;;;;;;-4.23;100.00;94774.53;1025646;28;20022;-69
2024/01/15 00:14:29;;;;;;;0.65;0.65;;;;;;;-4.24;100.00;94778.06;1019243;29;20600;-69
2024/01/15 00:15:00;;;;;;;0.28;0.28;;;;;;;-4.24;100.00;94769.59;1018761;29;20031;-70
2024/01/15 00:15:30;;;;;;;0.50;0.50;;;;;;;-4.21;100.00;94782.03;1023225;29;20031;-71
2024/01/15 00:16:01;;;;;;;1.05;0.95;;;;;;;-4.16;100.00;94782.22;1021960;29;20058;-69
2024/01/15 00:16:31;;;;;;;0.55;0.55;;;;;;;-4.18;100.00;94782.44;1024926;28;20028;-69
2024/01/15 00:17:02;;;;;;;1.25;1.25;;;;;;;-4.18;100.00;94786.75;1031097;28;20069;-71
2024/01/15 00:17:32;;;;;;;4.85;2.38;;;;;;;-4.19;100.00;94777.47;1030836;28;20077;-68
2024/01/15 00:18:03;;;;;;;1.05;1.05;;;;;;;-4.22;100.00;94773.56;1030738;28;20437;-69
2024/01/15 00:18:33;;;;;;;1.10;1.05;;;;;;;-4.24;100.00;94772.94;1035246;28;20022;-68
2024/01/15 00:19:04;;;;;;;1.25;1.25;;;;;;;-4.22;100.00;94780.47;1030480;28;20033;-69
2024/01/15 00:19:34;;;;;;;1.00;0.90;;;;;;;-4.24;100.00;94772.16;1026939;28;20023;-70
2024/01/15 00:20:05;;;;;;;0.22;0.22;;;;;;;-4.23;100.00;94776.28;1026804;28;20019;-69
2024/01/15 00:20:36;;;;;;;0.10;0.10;;;;;;;-4.25;100.00;94776.50;1026872;28;20114;-69
2024/01/15 00:21:06;;;;;;;0.77;0.77;;;;;;;-4.30;100.00;94776.28;1023412;28;20289;-69
2024/01/15 00:21:36;;;;;;;3.22;0.82;;;;;;;-4.32;100.00;94770.59;1024928;28;20071;-69
2024/01/15 00:22:07;;;;;;;1.20;1.00;;;;;;;-4.32;100.00;94771.38;1026846;28;20030;-69
2024/01/15 00:22:37;;;;;;;0.35;0.35;;;;;;;-4.26;100.00;94772.34;1031985;28;20030;-69
2024/01/15 00:23:08;;;;;;;0.30;0.30;;;;;;;-4.23;100.00;94782.19;1029477;28;21319;-71
2024/01/15 00:23:43;;;;;;;0.40;0.40;;;;;;;-4.31;100.00;94774.72;1023716;28;20031;-69
2024/01/15 00:24:13;;;;;;;1.30;0.30;;;;;;;-4.26;100.00;94777.47;1020610;29;20020;-69
2024/01/15 00:24:44;;;;;;;0.50;0.50;;;;;;;-4.26;100.00;94777.47;1020039;28;20733;-69
2024/01/15 00:25:14;;;;;;;0.60;0.43;;;;;;;-4.31;100.00;94774.72;1023657;28;20023;-69
2024/01/15 00:25:45;;;;;;;1.15;1.15;;;;;;;-4.31;100.00;94774.72;1022808;29;20090;-69
2024/01/15 00:26:15;;;;;;;6.55;2.20;;;;;;;-4.30;100.00;94782.19;1018862;29;20627;-69
2024/01/15 00:26:46;;;;;;;0.30;0.30;;;;;;;-4.27;100.00;94769.00;1021291;29;20043;-68
2024/01/15 00:27:16;;;;;;;1.50;1.40;;;;;;;-4.26;100.00;94774.91;1018970;29;20047;-68
2024/01/15 00:27:47;;;;;;;1.13;1.13;;;;;;;-4.26;100.00;94777.47;1023212;28;20082;-69
2024/01/15 00:28:17;;;;;;;0.70;0.70;;;;;;;-4.30;100.00;94774.50;1022355;28;20419;-69
2024/01/15 00:28:48;;;;;;;1.17;1.17;;;;;;;-4.29;100.00;94772.75;1026816;28;20026;-68
2024/01/15 00:29:18;;;;;;;1.77;0.98;;;;;;;-4.31;100.00;94777.28;1031089;28;20029;-68
2024/01/15 00:29:50;;;;;;;2.50;2.00;;;;;;;-4.31;100.00;94778.06;1026596;28;20446;-69
2024/01/15 00:30:20;;;;;;;0.77;0.77;;;;;;;-4.42;100.00;94757.38;1022894;28;20027;-69
2024/01/15 00:30:51;;;;;;;1.95;1.17;;;;;;;-4.34;100.00;94775.88;1027111;28;20278;-69
2024/01/15 00:31:21;;;;;;;5.93;1.98;;;;;;;-4.30;100.00;94771.94;1027009;28;20019;-69
2024/01/15 00:31:52;;;;;;;0.52;0.52;;;;;;;-4.28;100.00;94764.09;1028886;28;20033;-69
2024/01/15 00:32:22;;;;;;;1.00;0.68;;;;;;;-4.31;100.00;94761.91;1022790;29;20067;-70
2024/01/15 00:32:53;;;;;;;1.35;1.27;;;;;;;-4.26;100.00;94774.91;1018651;29;20036;-69
2024/01/15 00:33:23;;;;;;;0.32;0.32;;;;;;;-4.29;100.00;94772.75;1020040;29;20040;-69
2024/01/15 00:33:53;;;;;;;2.38;1.70;;;;;;;-4.28;100.00;94771.78;1020913;29;20098;-69
2024/01/15 00:34:24;;;;;;;2.20;1.00;;;;;;;-4.33;100.00;94766.44;1022761;29;20023;-70
2024/01/15 00:34:54;;;;;;;1.33;1.23;;;;;;;-4.31;100.00;94778.06;1020583;29;20019;-69
2024/01/15 00:35:25;;;;;;;0.57;0.57;;;;;;;-4.32;100.00;94778.28;1026612;28;20097;-68
2024/01/15 00:35:55;;;;;;;1.25;1.15;;;;;;;-4.32;100.00;94770.59;1030837;28;20023;-69
2024/01/15 00:36:26;;;;;;;3.25;2.67;;;;;;;-4.35;100.00;94765.84;1031174;28;20057;-69
2024/01/15 00:36:59;;;;;;;0.73;0.73;;;;;;;-4.33;100.00;94771.53;1028399;28;20078;-70
2024/01/15 00:37:29;;;;;;;0.68;0.68;;;;;;;-4.35;100.00;94773.53;1024092;28;20063;-70
2024/01/15 00:38:00;;;;;;;0.82;0.82;;;;;;;-4.36;100.00;94772.75;1025983;28;20270;-69
2024/01/15 00:38:30;;;;;;;1.63;1.52;;;;;;;-4.31;100.00;94780.63;1027138;28;20023;-70
2024/01/15 00:39:01;;;;;;;1.10;0.50;;;;;;;-4.30;100.00;94776.28;1030845;28;20018;-69
2024/01/15 00:39:31;;;;;;;0.38;0.38;;;;;;;-4.28;100.00;94776.91;1026744;28;20023;-69
2024/01/15 00:40:02;;;;;;;2.70;1.88;;;;;;;-4.28;100.00;94775.13;1027049;28;20015;-70
2024/01/15 00:40:32;;;;;;;0.10;0.10;;;;;;;-4.30;100.00;94777.06;1026748;28;20046;-70
2024/01/15 00:41:03;;;;;;;0.20;0.20;;;;;;;-4.34;100.00;94777.66;1030628;28;20019;-69
2024/01/15 00:41:33;;;;;;;0.98;0.98;;;;;;;-4.31;100.00;94774.72;1035208;28;20080;-69
2024/01/15 00:42:04;;;;;;;0.93;0.55;;;;;;;-4.29;100.00;94780.44;1027150;28;20015;-69
2024/01/15 00:42:34;;;;;;;7.68;1.80;;;;;;;-4.32;100.00;94776.50;1031349;28;20018;-70
2024/01/15 00:43:07;;;;;;;5.10;2.95;;;;;;;-4.24;100.00;94784.97;1031497;28;20010;-70
2024/01/15 00:43:37;;;;;;;0.17;0.17;;;;;;;-4.33;100.00;94772.34;1031191;28;20115;-69
2024/01/15 00:44:08;;;;;;;0.90;0.90;;;;;;;-4.26;100.00;94785.16;1023099;29;20651;-70
2024/01/15 00:44:38;;;;;;;0.75;0.75;;;;;;;-4.30;100.00;94779.63;1025754;28;20031;-69
2024/01/15 00:45:09;;;;;;;0.50;0.50;;;;;;;-4.29;100.00;94781.22;1022772;29;20035;-69
2024/01/15 00:45:40;;;;;;;1.80;1.23;;;;;;;-4.30;100.00;94777.06;1019307;28;20151;-69
2024/01/15 00:46:10;;;;;;;2.28;0.60;;;;;;;-4.29;100.00;94777.88;1022883;28;20016;-69
2024/01/15 00:46:43;;;;;;;0.10;0.10;;;;;;;-4.30;100.00;94781.41;1022774;28;20497;-69
2024/01/15 00:47:14;;;;;;;2.00;1.80;;;;;;;-4.33;100.00;94776.66;1019392;28;20103;-68
2024/01/15 00:47:45;;;;;;;0.55;0.55;;;;;;;-4.33;100.00;94776.66;1022435;29;20274;-69
2024/01/15 00:48:15;;;;;;;0.77;0.77;;;;;;;-4.37;100.00;94766.03;1022915;28;20042;-70
2024/01/15 00:48:46;;;;;;;2.08;1.92;;;;;;;-4.36;100.00;94767.63;1023068;28;20039;-70
2024/01/15 00:49:17;;;;;;;4.50;1.00;;;;;;;-4.32;100.00;94768.03;1027022;28;20650;-69
2024/01/15 00:49:47;;;;;;;0.75;0.75;;;;;;;-4.31;100.00;94769.59;1031427;28;20285;-69
2024/01/15 00:50:18;;;;;;;10.45;1.92;;;;;;;-4.38;100.00;94763.69;1026962;28;20038;-68
2024/01/15 00:50:48;;;;;;;3.70;3.40;;;;;;;-4.37;100.00;94772.94;1021978;28;20507;-68
2024/01/15 00:51:19;;;;;;;0.45;0.45;;;;;;;-4.36;100.00;94761.69;1027003;28;20018;-69
2024/01/15 00:51:49;;;;;;;5.15;0.50;;;;;;;-4.42;100.00;94757.38;1027393;28;20027;-69
2024/01/15 00:52:19;;;;;;;0.98;0.98;;;;;;;-4.30;100.00;94774.50;1027931;28;20034;-69
2024/01/15 00:52:50;;;;;;;1.65;1.55;;;;;;;-4.33;100.00;94769.78;1029648;28;20510;-70
2024/01/15 00:53:22;;;;;;;0.20;0.20;;;;;;;-4.31;100.00;94762.69;1019518;29;20167;-70
2024/01/15 00:53:52;;;;;;;1.95;0.55;;;;;;;-4.34;100.00;94769.97;1016080;29;20050;-69
2024/01/15 00:54:22;;;;;;;0.40;0.40;;;;;;;-4.37;100.00;94766.03;1019685;29;20750;-70
2024/01/15 00:54:53;;;;;;;1.40;1.30;;;;;;;-4.39;100.00;94762.06;1023378;28;20538;-69
2024/01/15 00:55:23;;;;;;;3.35;0.57;;;;;;;-4.40;100.00;94768.19;1028167;28;20063;-68
2024/01/15 00:55:54;;;;;;;4.13;1.33;;;;;;;-4.39;100.00;94767.19;1031211;28;20038;-69
2024/01/15 00:56:24;;;;;;;0.13;0.13;;;;;;;-4.39;100.00;94759.50;1027987;28;20619;-69
2024/01/15 00:56:55;;;;;;;0.50;0.50;;;;;;;-4.39;100.00;94764.63;1025024;28;20026;-69
2024/01/15 00:57:25;;;;;;;0.50;0.50;;;;;;;-4.36;100.00;94765.06;1023643;28;20490;-69
2024/01/15 00:57:56;;;;;;;3.85;2.33;;;;;;;-4.37;100.00;94765.25;1030193;28;20026;-67
2024/01/15 00:58:26;;;;;;;1.00;1.00;;;;;;;-4.42;100.00;94758.16;1027408;28;20027;-69
2024/01/15 00:58:57;;;;;;;1.45;1.35;;;;;;;-4.43;100.00;94764.25;1023505;28;20038;-69
2024/01/15 00:59:27;;;;;;;3.38;2.22;;;;;;;-4.42;100.00;94767.63;1023606;29;20532;-69
2024/01/15 00:59:58;;;;;;;1.13;1.10;;;;;;;-4.44;100.00;94767.00;1026214;28;20015;-68
2024/01/15 01:00:28;;;;;;;0.20;0.20;;;;;;;-4.45;100.00;94765.44;1023766;29;20023;-69
2024/01/15 01:00:59;;;;;;;0.47;0.47;;;;;;;-4.48;100.00;94763.25;1020296;28;20028;-69
2024/01/15 01:01:29;;;;;;;0.20;0.20;;;;;;;-4.47;100.00;94764.81;1030933;28;20086;-69
2024/01/15 01:02:00;;;;;;;1.48;1.38;;;;;;;-4.53;100.00;94756.13;1027672;28;20027;-68
2024/01/15 01:02:30;;;;;;;1.55;1.35;;;;;;;-4.48;100.00;94763.25;1019638;29;20020;-68
2024/01/15 01:03:01;;;;;;;0.52;0.52;;;;;;;-4.46;100.00;94758.72;1013582;29;20092;-69
2024/01/15 01:03:31;;;;;;;1.52;1.45;;;;;;;-4.51;100.00;94762.66;1022123;29;20027;-70
2024/01/15 01:04:01;;;;;;;2.63;2.17;;;;;;;-4.43;100.00;94766.00;1024033;28;20023;-69
2024/01/15 01:04:32;;;;;;;0.45;0.45;;;;;;;-4.39;100.00;94765.44;1027373;28;20030;-69
2024/01/15 01:05:03;;;;;;;1.08;0.47;;;;;;;-4.36;100.00;94756.56;1023928;28;20026;-69
2024/01/15 01:05:36;;;;;;;1.95;1.13;;;;;;;-4.39;100.00;94762.06;1027883;28;20027;-71
2024/01/15 01:06:06;;;;;;;0.30;0.30;;;;;;;-4.40;100.00;94763.06;1024134;28;20089;-69
2024/01/15 01:06:37;;;;;;;0.57;0.57;;;;;;;-4.42;100.00;94763.28;1023976;28;20318;-70
2024/01/15 01:07:07;;;;;;;0.00;0.00;;;;;;;-4.47;100.00;94762.25;1027608;28;20372;-69
2024/01/15 01:07:38;;;;;;;4.57;1.05;;;;;;;-4.44;100.00;94761.88;1023747;28;20019;-68
2024/01/15 01:08:08;;;;;;;0.75;0.68;;;;;;;-4.48;100.00;94755.59;1025914;28;20031;-69
2024/01/15 01:08:39;;;;;;;0.88;0.88;;;;;;;-4.42;100.00;94770.16;1027797;28;20097;-68
2024/01/15 01:09:09;;;;;;;0.35;0.35;;;;;;;-4.48;100.00;94753.81;1031738;28;20031;-69
2024/01/15 01:09:40;;;;;;;1.00;1.00;;;;;;;-4.49;100.00;94762.47;1025568;28;20453;-69
2024/01/15 01:10:10;;;;;;;0.52;0.52;;;;;;;-4.49;100.00;94757.34;1023807;29;20031;-69
2024/01/15 01:10:42;;;;;;;1.55;1.45;;;;;;;-4.55;100.00;94756.34;1025314;28;20027;-70
2024/01/15 01:11:15;;;;;;;0.75;0.75;;;;;;;-4.49;100.00;94752.22;1023467;28;20126;-69
2024/01/15 01:11:46;;;;;;;0.40;0.40;;;;;;;-4.49;100.00;94757.34;1023130;29;20373;-70
2024/01/15 01:12:17;;;;;;;0.50;0.30;;;;;;;-4.52;100.00;94757.75;1019238;29;20268;-69
2024/01/15 01:12:47;;;;;;;4.03;1.40;;;;;;;-4.52;100.00;94755.97;1019202;29;20027;-69
2024/01/15 01:13:18;;;;;;;0.28;0.28;;;;;;;-4.51;100.00;94757.53;1022873;28;20027;-68
2024/01/15 01:13:48;;;;;;;0.28;0.28;;;;;;;-4.51;100.00;94760.09;1031600;28;20041;-69
2024/01/15 01:14:18;;;;;;;1.55;1.00;;;;;;;-4.54;100.00;94757.91;1027805;28;20023;-70
2024/01/15 01:14:49;;;;;;;1.33;1.23;;;;;;;-4.55;100.00;94758.13;1023434;28;20039;-69
2024/01/15 01:15:20;;;;;;;0.20;0.20;;;;;;;-4.58;100.00;94763.63;1023634;29;20023;-69
2024/01/15 01:15:50;;;;;;;2.45;2.17;;;;;;;-4.57;100.00;94765.97;1023870;28;20028;-69
2024/01/15 01:16:20;;;;;;;1.55;0.80;;;;;;;-4.56;100.00;94765.00;1027513;28;20027;-70
2024/01/15 01:16:51;;;;;;;3.58;3.33;;;;;;;-4.62;100.00;94758.09;1031772;28;20026;-70
2024/01/15 01:17:22;;;;;;;0.70;0.70;;;;;;;-4.58;100.00;94772.09;1027485;28;20549;-70
2024/01/15 01:17:52;;;;;;;0.40;0.40;;;;;;;-4.58;100.00;94774.66;1023424;28;20105;-69
2024/01/15 01:18:23;;;;;;;0.75;0.63;;;;;;;-4.56;100.00;94767.56;1023248;28;20091;-69
2024/01/15 01:18:53;;;;;;;1.60;1.50;;;;;;;-4.58;100.00;94769.53;1023327;28;20419;-70
2024/01/15 01:19:25;;;;;;;1.40;1.30;;;;;;;-4.53;100.00;94766.38;1019423;29;20070;-68
2024/01/15 01:19:55;;;;;;;0.35;0.35;;;;;;;-4.53;100.00;94774.06;1021311;29;20058;-70
2024/01/15 01:20:26;;;;;;;1.45;0.93;;;;;;;-4.56;100.00;94759.91;1027496;28;20785;-70
2024/01/15 01:20:56;;;;;;;0.35;0.35;;;;;;;-4.59;100.00;94757.72;1023617;29;20038;-71
2024/01/15 01:21:26;;;;;;;0.90;0.88;;;;;;;-4.52;100.00;94760.31;1023343;29;20043;-69
2024/01/15 01:21:57;;;;;;;2.08;0.80;;;;;;;-4.52;100.00;94765.41;1024608;28;20039;-69
2024/01/15 01:22:27;;;;;;;2.17;1.77;;;;;;;-4.54;100.00;94764.81;1024949;28;20073;-69
2024/01/15 01:22:58;;;;;;;0.57;0.57;;;;;;;-4.56;100.00;94772.69;1027555;28;20026;-69
2024/01/15 01:23:28;;;;;;;2.22;1.42;;;;;;;-4.55;100.00;94770.91;1031150;28;20188;-69
2024/01/15 01:23:59;;;;;;;2.95;1.50;;;;;;;-4.56;100.00;94775.25;1030484;28;20069;-68
2024/01/15 01:24:29;;;;;;;0.47;0.47;;;;;;;-4.58;100.00;94766.97;1023635;28;20147;-70
2024/01/15 01:25:00;;;;;;;0.20;0.20;;;;;;;-4.53;100.00;94767.19;1023325;29;20039;-69
2024/01/15 01:25:30;;;;;;;0.50;0.50;;;;;;;-4.53;100.00;94767.19;1023836;28;20475;-69
2024/01/15 01:26:00;;;;;;;4.75;0.88;;;;;;;-4.53;100.00;94772.31;1019503;29;20027;-69
2024/01/15 01:26:31;;;;;;;3.08;2.83;;;;;;;-4.57;100.00;94765.97;1019977;29;20058;-69
2024/01/15 01:27:01;;;;;;;0.30;0.30;;;;;;;-4.47;100.00;94786.09;1019487;29;20035;-70
2024/01/15 01:27:32;;;;;;;0.90;0.90;;;;;;;-4.45;100.00;94776.47;1023430;28;20346;-70
2024/01/15 01:28:03;;;;;;;0.93;0.47;;;;;;;-4.42;100.00;94777.84;1019271;29;20507;-68
2024/01/15 01:28:33;;;;;;;1.35;0.68;;;;;;;-4.43;100.00;94778.81;1015618;29;20024;-67
2024/01/15 01:29:06;;;;;;;0.15;0.15;;;;;;;-4.41;100.00;94784.53;1019151;29;20088;-70
2024/01/15 01:29:37;;;;;;;2.35;1.08;;;;;;;-4.43;100.00;94776.25;1016206;29;20070;-69
2024/01/15 01:30:08;;;;;;;1.55;0.73;;;;;;;-4.53;100.00;94762.06;1018230;29;20768;-70
2024/01/15 01:30:39;;;;;;;0.17;0.17;;;;;;;-4.41;100.00;94782.75;1023918;28;20035;-69
2024/01/15 01:31:09;;;;;;;0.80;0.80;;;;;;;-4.40;100.00;94779.22;1023506;28;20043;-70
2024/01/15 01:31:44;;;;;;;0.10;0.10;;;;;;;-4.45;100.00;94773.13;1028062;28;20654;-70
2024/01/15 01:32:14;;;;;;;0.57;0.57;;;;;;;-4.40;100.00;94781.00;1024010;29;20031;-69
2024/01/15 01:32:45;;;;;;;1.35;1.35;;;;;;;-4.40;100.00;94775.88;1022498;28;20756;-69
2024/01/15 01:33:15;;;;;;;0.93;0.82;;;;;;;-4.45;100.00;94775.69;1019964;29;20595;-69
2024/01/15 01:33:46;;;;;;;1.75;1.25;;;;;;;-4.44;100.00;94778.03;1023221;29;20035;-69
2024/01/15 01:34:16;;;;;;;0.60;0.60;;;;;;;-4.45;100.00;94762.88;1023581;29;20039;-69
2024/01/15 01:34:47;;;;;;;0.90;0.57;;;;;;;-4.45;100.00;94779.03;1022620;29;20135;-69
2024/01/15 01:35:17;;;;;;;0.60;0.60;;;;;;;-4.45;100.00;94779.03;1019644;28;20410;-69
2024/01/15 01:35:48;;;;;;;1.08;1.08;;;;;;;-4.44;100.00;94775.47;1027502;28;20121;-70
2024/01/15 01:36:18;;;;;;;0.98;0.95;;;;;;;-4.44;100.00;94770.34;1023743;28;20035;-69
2024/01/15 01:36:48;;;;;;;1.58;0.32;;;;;;;-4.44;100.00;94780.59;1028898;28;20046;-70
2024/01/15 01:37:19;;;;;;;0.57;0.57;;;;;;;-4.43;100.00;94778.81;1031732;28;20031;-69
2024/01/15 01:37:49;;;;;;;0.30;0.30;;;;;;;-4.43;100.00;94769.34;1027321;28;20042;-69
2024/01/15 01:38:20;;;;;;;0.20;0.20;;;;;;;-4.39;100.00;94767.19;1023262;29;20585;-69
2024/01/15 01:38:50;;;;;;;0.00;0.00;;;;;;;-4.38;100.00;94771.34;1023713;28;20039;-69
2024/01/15 01:39:21;;;;;;;2.97;1.35;;;;;;;-4.62;100.00;94732.50;1023533;28;20086;-68
2024/01/15 01:39:51;;;;;;;1.60;0.25;;;;;;;-4.37;100.00;94775.50;1030887;28;20046;-69
2024/01/15 01:40:22;;;;;;;0.38;0.38;;;;;;;-4.38;100.00;94773.91;1037165;28;20370;-70
2024/01/15 01:40:52;;;;;;;1.02;1.02;;;;;;;-4.39;100.00;94770.56;1028491;28;20038;-69
2024/01/15 01:41:24;;;;;;;0.60;0.60;;;;;;;-4.35;100.00;94773.53;1036778;28;20029;-71
2024/01/15 01:41:54;;;;;;;0.45;0.45;;;;;;;-4.33;100.00;94771.53;1033927;28;20044;-69
2024/01/15 01:42:24;;;;;;;0.82;0.82;;;;;;;-4.32;100.00;94773.16;1027466;28;20281;-69
2024/01/15 01:42:55;;;;;;;0.90;0.65;;;;;;;-4.32;100.00;94773.94;1028468;28;20023;-69
2024/01/15 01:43:25;;;;;;;0.40;0.40;;;;;;;-4.29;100.00;94770.19;1032415;28;20031;-69
2024/01/15 01:43:56;;;;;;;1.10;0.75;;;;;;;-4.28;100.00;94767.44;1036460;28;20026;-69
2024/01/15 01:44:27;;;;;;;3.30;1.20;;;;;;;-4.28;100.00;94764.88;1036312;28;20030;-69
2024/01/15 01:44:57;;;;;;;0.85;0.52;;;;;;;-4.24;100.00;94772.94;1028006;28;20274;-69
2024/01/15 01:45:28;;;;;;;0.88;0.88;;;;;;;-4.20;100.00;94771.56;1027083;28;20034;-71
2024/01/15 01:45:59;;;;;;;0.50;0.50;;;;;;;-4.18;100.00;94772.19;1028590;28;20031;-69
2024/01/15 01:46:29;;;;;;;1.88;1.15;;;;;;;-4.18;100.00;94772.19;1022935;28;20027;-69
2024/01/15 01:47:00;;;;;;;1.75;1.65;;;;;;;-4.17;100.00;94760.16;1020385;29;20264;-70
2024/01/15 01:47:31;;;;;;;1.08;0.40;;;;;;;-4.15;100.00;94765.88;1020073;29;20028;-69
2024/01/15 01:48:01;;;;;;;0.90;0.73;;;;;;;-4.14;100.00;94767.47;1014777;29;20448;-69
2024/01/15 01:48:32;;;;;;;3.22;1.30;;;;;;;-4.12;100.00;94768.84;1016114;29;20538;-70
2024/01/15 01:49:05;;;;;;;0.55;0.55;;;;;;;-4.13;100.00;94761.34;1015810;29;20024;-69
2024/01/15 01:49:35;;;;;;;1.85;1.60;;;;;;;-4.11;100.00;94775.53;1016198;29;20024;-69
2024/01/15 01:50:06;;;;;;;1.08;1.02;;;;;;;-4.10;100.00;94768.63;1019259;29;20723;-70
2024/01/15 01:50:36;;;;;;;0.10;0.08;;;;;;;-4.10;100.00;94763.50;1019827;29;20111;-69
2024/01/15 01:51:07;;;;;;;0.47;0.47;;;;;;;-4.12;100.00;94756.03;1020251;29;20024;-68
2024/01/15 01:51:39;;;;;;;0.55;0.52;;;;;;;-4.11;100.00;94760.16;1027739;28;20069;-69
2024/01/15 01:52:09;;;;;;;0.80;0.80;;;;;;;-4.11;100.00;94760.16;1025303;28;20442;-69
2024/01/15 01:52:40;;;;;;;0.15;0.15;;;;;;;-4.12;100.00;94757.81;1023447;28;20326;-68
2024/01/15 01:53:10;;;;;;;2.97;2.80;;;;;;;-4.08;100.00;94764.91;1019820;29;20048;-69
2024/01/15 01:53:41;;;;;;;0.20;0.20;;;;;;;-4.09;100.00;94765.09;1023989;29;20023;-69
2024/01/15 01:54:13;;;;;;;0.30;0.30;;;;;;;-4.05;100.00;94763.72;1019571;29;20036;-68
2024/01/15 01:54:44;;;;;;;0.47;0.47;;;;;;;-4.07;100.00;94756.22;1019436;29;20035;-68
2024/01/15 01:55:14;;;;;;;3.55;2.30;;;;;;;-4.06;100.00;94762.94;1015800;29;20728;-68
2024/01/15 01:55:45;;;;;;;4.22;2.15;;;;;;;-4.06;100.00;94757.81;1024344;28;20070;-68
2024/01/15 01:56:15;;;;;;;0.95;0.88;;;;;;;-4.08;100.00;94751.31;1025048;28;20407;-69
2024/01/15 01:56:46;;;;;;;3.42;0.95;;;;;;;-4.03;100.00;94752.28;1026660;28;20023;-69
2024/01/15 01:57:17;;;;;;;1.75;1.55;;;;;;;-4.05;100.00;94749.16;1024834;29;20046;-69
2024/01/15 01:57:47;;;;;;;3.30;0.95;;;;;;;-4.03;100.00;94751.50;1024443;28;20290;-69
2024/01/15 01:58:18;;;;;;;3.72;0.90;;;;;;;-4.02;100.00;94758.22;1024171;29;20527;-69
2024/01/15 01:58:48;;;;;;;2.60;2.00;;;;;;;-4.06;100.00;94750.13;1024237;29;20485;-68
2024/01/15 01:59:19;;;;;;;0.70;0.70;;;;;;;-4.08;100.00;94739.28;1024562;28;20262;-69
2024/01/15 01:59:49;;;;;;;4.18;1.95;;;;;;;-4.10;100.00;94741.25;1020479;29;20024;-69
2024/01/15 02:00:20;;;;;;;6.72;2.15;;;;;;;-4.07;100.00;94743.41;1020001;29;20110;-69
2024/01/15 02:00:50;;;;;;;1.33;1.23;;;;;;;-4.09;100.00;94747.97;1020555;29;20030;-69
2024/01/15 02:01:21;;;;;;;3.03;1.95;;;;;;;-4.10;100.00;94736.13;1022519;29;20019;-69
2024/01/15 02:01:51;;;;;;;0.22;0.22;;;;;;;-4.13;100.00;94735.72;1018591;29;20043;-69
2024/01/15 02:02:22;;;;;;;0.35;0.35;;;;;;;-4.08;100.00;94739.28;1016924;29;20035;-70
2024/01/15 02:02:52;;;;;;;0.60;0.60;;;;;;;-4.11;100.00;94729.44;1019676;29;20035;-70
2024/01/15 02:03:23;;;;;;;9.55;1.98;;;;;;;-4.06;100.00;94737.34;1023641;29;20084;-69
2024/01/15 02:03:56;;;;;;;0.60;0.60;;;;;;;-4.09;100.00;94745.41;1019378;29;20459;-69
2024/01/15 02:04:26;;;;;;;0.20;0.20;;;;;;;-4.10;100.00;94743.03;1020207;29;20024;-69
2024/01/15 02:04:57;;;;;;;0.57;0.57;;;;;;;-4.15;100.00;94741.06;1024225;28;20302;-70
2024/01/15 02:05:27;;;;;;;0.57;0.57;;;;;;;-4.14;100.00;94740.06;1016359;28;20048;-69
2024/01/15 02:05:59;;;;;;;4.25;1.77;;;;;;;-4.15;100.00;94743.63;1015725;29;20024;-69
2024/01/15 02:06:29;;;;;;;0.75;0.75;;;;;;;-4.16;100.00;94741.25;1019536;29;20138;-69
2024/01/15 02:07:04;;;;;;;0.65;0.65;;;;;;;-4.18;100.00;94733.75;1025405;28;20324;-69
2024/01/15 02:07:34;;;;;;;1.35;1.35;;;;;;;-4.20;100.00;94734.94;1023802;29;20019;-69
2024/01/15 02:08:05;;;;;;;0.10;0.10;;;;;;;-4.19;100.00;94727.06;1034337;28;20340;-69
2024/01/15 02:08:35;;;;;;;0.82;0.82;;;;;;;-4.22;100.00;94724.91;1031201;28;20034;-69
2024/01/15 02:09:06;;;;;;;0.05;0.05;;;;;;;-4.17;100.00;94735.34;1015539;29;20222;-69
2024/01/15 02:09:36;;;;;;;0.45;0.45;;;;;;;-4.19;100.00;94732.19;1019274;29;20049;-70
2024/01/15 02:10:07;;;;;;;1.40;1.30;;;;;;;-4.19;100.00;94732.19;1023699;29;20526;-69
2024/01/15 02:10:37;;;;;;;2.47;0.50;;;;;;;-4.20;100.00;94729.81;1018024;29;20080;-69
2024/01/15 02:11:08;;;;;;;0.47;0.47;;;;;;;-4.21;100.00;94729.03;1019591;28;20031;-69
2024/01/15 02:11:38;;;;;;;0.30;0.30;;;;;;;-4.26;100.00;94721.13;1023941;28;20487;-71
2024/01/15 02:12:09;;;;;;;0.25;0.25;;;;;;;-4.22;100.00;94727.47;1021147;28;20015;-68
2024/01/15 02:12:39;;;;;;;0.30;0.30;;;;;;;-4.23;100.00;94723.31;1023533;28;20026;-69
2024/01/15 02:13:09;;;;;;;0.10;0.10;;;;;;;-4.27;100.00;94729.81;1023663;29;20026;-69
2024/01/15 02:13:40;;;;;;;1.02;0.93;;;;;;;-4.28;100.00;94725.69;1023184;28;20430;-69
2024/01/15 02:14:10;;;;;;;0.30;0.30;;;;;;;-4.34;100.00;94716.22;1015905;29;20028;-69
2024/01/15 02:14:41;;;;;;;1.08;0.57;;;;;;;-4.35;100.00;94727.44;1016390;29;20029;-69
2024/01/15 02:15:12;;;;;;;0.68;0.68;;;;;;;-4.32;100.00;94729.63;1019398;29;20028;-69
2024/01/15 02:15:43;;;;;;;0.30;0.30;;;;;;;-4.37;100.00;94730.19;1019616;29;20046;-69
2024/01/15 02:16:13;;;;;;;4.18;1.38;;;;;;;-4.38;100.00;94725.28;1027391;28;20785;-69
2024/01/15 02:16:44;;;;;;;0.95;0.88;;;;;;;-4.37;100.00;94724.28;1026904;28;20113;-70
2024/01/15 02:17:14;;;;;;;1.50;0.93;;;;;;;-4.39;100.00;94726.22;1031381;28;20022;-68
2024/01/15 02:18:01;;;;;;;0.95;0.95;;;;;;;-4.44;100.00;94729.38;1027308;28;20161;-69
2024/01/15 02:18:40;;;;;;;1.08;1.08;;;;;;;-4.46;100.00;94733.94;1025881;28;20052;-70
2024/01/15 02:19:17;;;;;;;0.20;0.20;;;;;;;-4.48;100.00;94719.75;1023226;29;20274;-70
2024/01/15 02:19:47;;;;;;;0.10;0.10;;;;;;;-4.45;100.00;94722.69;1018432;29;20289;-69
2024/01/15 02:20:18;;;;;;;2.88;2.67;;;;;;;-4.46;100.00;94725.44;1019912;29;20272;-69
2024/01/15 02:20:48;;;;;;;1.23;1.15;;;;;;;-4.41;100.00;94733.34;1020255;29;20070;-69
2024/01/15 02:21:19;;;;;;;0.80;0.47;;;;;;;-4.39;100.00;94731.34;1023897;28;20027;-69
2024/01/15 02:21:49;;;;;;;0.30;0.30;;;;;;;-4.40;100.00;94725.44;1025746;28;20035;-68
2024/01/15 02:22:20;;;;;;;0.38;0.38;;;;;;;-4.45;100.00;94711.69;1023335;28;20035;-68
2024/01/15 02:22:50;;;;;;;0.10;0.10;;;;;;;-4.41;100.00;94720.53;1025853;28;20035;-69